Amargosa Valley, Nevada Weather observations

Data are for observation ending at time listed.
 Day   Time    Ave.   Ave.  Ave.  Vector   Max.   Stn.    Total    Solar   Ave.  
  of    of     Air    Rel.  Wind   Wind    Wind   Baro.  Precip.   Rad.    Soil  
Year   Day     Temp.  Hum.  Speed  Dir.    Gust   Pres.                    Temp. 
2016   (PST)    F      %     mph   deg.    mph     mb.     in.     W/m2     F   
------------------------------------------------------------------------------
 143   22:00   64.0    18    4.1   134      6.3   924.0    0.00       0    75.8
 143   22:10   63.7    18    3.6   132      4.8   923.9    0.00       0    75.7
 143   22:20   63.2    18    4.4   112      6.1   923.9    0.00       0    75.6
 143   22:30   62.9    18    5.6   116      7.8   923.8    0.00       0    75.5
 143   22:40   62.8    17    4.9   104      6.2   923.9    0.00       0    75.4
 143   22:50   62.3    18    5.7    99      7.0   923.9    0.00       0    75.3
 143   23:00   62.0    18    5.5   106      7.6   923.8    0.00       0    75.2
 143   23:10   61.5    19    4.8   112      6.3   923.8    0.00       0    75.1
 143   23:20   60.9    20    4.1   113      5.8   923.8    0.00       0    75.0
 143   23:30   60.4    20    3.6   122      5.0   923.7    0.00       0    74.9
 143   23:40   59.8    21    4.2   126      6.1   923.6    0.00       0    74.8
 143   23:50   59.8    21    4.3   112      6.6   923.5    0.00       0    74.7
 144    0:00   59.8    21    4.0    99      5.8   923.5    0.00       0    74.6
 144    0:10   59.5    22    3.9    98      5.5   923.5    0.00       0    74.5
 144    0:20   59.2    24    3.8    87      5.1   923.5    0.00       0    74.4
 144    0:30   58.5    27    4.0   105      5.6   923.4    0.00       0    74.3
 144    0:40   58.2    29    5.0   106      6.8   923.4    0.00       0    74.2
 144    0:50   58.8    30    5.5    88      7.7   923.4    0.00       0    74.1
 144    1:00   59.4    31    5.8   102      8.3   923.3    0.00       0    74.0
 144    1:10   60.1    31    6.6   105     10.7   923.3    0.00       0    73.9
 144    1:20   60.9    30    6.7   101      9.5   923.2    0.00       0    73.9
 144    1:30   61.0    30    7.2    95      9.5   923.2    0.00       0    73.8
 144    1:40   60.7    30    7.1   100     12.2   923.2    0.00       0    73.7
 144    1:50   59.9    31    5.6   115      8.6   923.2    0.00       0    73.5
 144    2:00   59.4    31    5.8   119      8.3   923.2    0.00       0    73.4
 144    2:10   58.9    32    5.9   125      8.6   923.2    0.00       0    73.3
 144    2:20   60.0    30    8.2   138     11.6   923.2    0.00       0    73.2
 144    2:30   59.4    30    7.2   125     11.2   923.2    0.00       0    73.1
 144    2:40   58.5    32    7.6   136     11.5   923.3    0.00       0    73.1
 144    2:50   57.6    33    6.0   135      8.7   923.3    0.00       0    73.0
 144    3:00   57.4    34    6.0   136      8.8   923.3    0.00       0    72.9
 144    3:10   58.1    36    7.9   164     12.1   923.4    0.00       0    72.8
 144    3:20   57.6    37    5.9   163      8.8   923.5    0.00       0    72.7
 144    3:30   57.5    37    5.6   163      8.4   923.5    0.00       0    72.6
 144    3:40   56.8    38    4.7   159      7.0   923.5    0.00       0    72.5
 144    3:50   55.9    38    3.7   123      5.1   923.5    0.00       0    72.4
 144    4:00   54.7    39    4.0   122      5.6   923.5    0.00       0    72.4
 144    4:10   54.5    39    2.9   112      4.2   923.5    0.00       0    72.3
 144    4:20   54.0    39    3.3   117      5.0   923.5    0.00       0    72.2
 144    4:30   53.9    40    4.6   113      6.1   923.4    0.00       1    72.1
 144    4:40   54.3    39    5.0   105      6.8   923.4    0.00       6    72.0
 144    4:50   55.0    39    5.2   127      8.2   923.5    0.00      11    71.9
 144    5:00   55.3    38    4.7   127      7.4   923.6    0.00      17    71.8
 144    5:10   55.2    38    5.1   100      7.3   923.7    0.00      24    71.7
 144    5:20   55.9    37    4.4   100      6.0   923.8    0.00      29    71.6
 144    5:30   56.2    37    4.5   105      6.4   923.9    0.00      82    71.5
 144    5:40   57.4    36    3.9   107      5.5   924.0    0.00     153    71.4
 144    5:50   58.7    34    5.1   116      7.2   924.2    0.00     185    71.3
 144    6:00   59.8    33    5.0   117      7.7   924.4    0.00     217    71.2
 144    6:10   60.9    32    4.9   124      7.8   924.5    0.00     251    71.1
 144    6:20   61.1    31    5.8   117      8.0   924.6    0.00     285    71.0
 144    6:30   61.8    31    5.4   131      8.8   924.7    0.00     320    70.9
 144    6:40   62.6    30    6.9   146     10.6   924.9    0.00     353    70.8
 144    6:50   63.0    30    8.0   158     13.6   925.0    0.00     387    70.7
 144    7:00   63.5    30    9.3   166     13.7   925.0    0.00     422    70.7
 144    7:10   64.2    29    9.7   170     14.8   925.1    0.00     456    70.6
 144    7:20   64.8    28    9.4   177     13.8   925.1    0.00     486    70.6
 144    7:30   65.0    28   10.0   180     14.6   925.1    0.00     518    70.5
 144    7:40   65.8    28    9.9   170     14.1   925.1    0.00     550    70.5
 144    7:50   65.6    28    8.6   170     15.8   925.1    0.00     581    70.5
 144    8:00   65.9    27    8.9   168     15.3   925.1    0.00     611    70.4
 144    8:10   66.5    26    9.0   185     13.6   925.1    0.00     640    70.4
 144    8:20   66.8    26    9.2   165     15.3   925.1    0.00     670    70.4
 144    8:30   66.7    26    9.3   178     16.7   925.0    0.00     696    70.4
 144    8:40   67.2    26    8.9   166     15.3   925.0    0.00     721    70.3
 144    8:50   67.7    26    8.6   170     14.2   925.0    0.00     751    70.3
 144    9:00   67.8    26    9.3   176     17.1   924.9    0.00     777    70.4
 144    9:10   68.6    25    9.2   166     16.0   924.9    0.00     802    70.4
 144    9:20   69.1    25    7.9   168     12.6   925.0    0.00     825    70.4
 144    9:30   69.4    24    9.4   162     13.9   925.0    0.00     848    70.5
 144    9:40   70.1    24    9.5   163     16.9   925.0    0.00     870    70.5
 144    9:50   70.7    23    9.5   162     15.9   925.0    0.00     889    70.6
 144   10:00   71.3    22   10.6   155     17.7   925.0    0.00     908    70.6
 144   10:10   71.4    21   10.9   172     16.7   924.9    0.00     924    70.6
 144   10:20   71.7    20   10.8   182     18.3   924.9    0.00     937    70.7
 144   10:30   71.8    18   11.7   182     19.9   924.7    0.00     953    70.8
 144   10:40   72.9    17   12.6   184     20.4   924.6    0.00     965    70.9
 144   10:50   72.6    15   13.5   192     22.1   924.5    0.00     975    71.0
 144   11:00   72.9    15   12.4   186     20.2   924.3    0.00     983    71.0
 144   11:10   73.4    14   12.3   177     19.1   924.2    0.00     991    71.1
 144   11:20   74.3    14   11.4   185     18.8   924.0    0.00     993    71.2
 144   11:30   73.9    14   12.3   182     19.5   924.0    0.00     996    71.3
 144   11:40   73.7    14   10.4   192     17.6   923.9    0.00     994    71.5
 144   11:50   74.4    13   11.8   176     21.5   923.8    0.00     996    71.6
 144   12:00   74.6    13   13.0   165     23.8   923.8    0.00     999    71.7
 144   12:10   74.8    12   12.6   186     21.5   923.7    0.00     998    71.8
 144   12:20   75.1    12   12.4   192     22.0   923.6    0.00     996    72.0
 144   12:30   75.1    12   10.4   188     17.5   923.5    0.00     990    72.1
 144   12:40   75.9    11   11.2   156     17.7   923.5    0.00     985    72.3
 144   12:50   75.8    10   11.1   169     20.4   923.4    0.00     978    72.6
 144   13:00   75.8    12   11.6   158     20.9   923.3    0.00     964    72.8
 144   13:10   75.8    12   11.6   174     20.2   923.1    0.00     952    73.0
 144   13:20   76.4    11   12.6   165     21.0   923.1    0.00     940    73.2
 144   13:30   76.1    12   12.3   166     20.5   922.9    0.00     928    73.5
 144   13:40   76.4    12   11.5   171     20.2   922.8    0.00     908    73.7
 144   13:50   77.0    11   11.7   153     19.9   922.7    0.00     890    74.0
 144   14:00   77.4    12   14.2   156     21.2   922.6    0.00     867    74.3
 144   14:10   77.1    12   14.2   159     21.5   922.4    0.00     843    74.6
 144   14:20   77.5    12   14.1   147     19.4   922.3    0.00     821    74.9
 144   14:30   77.0    12   13.5   151     22.0   922.3    0.00     797    75.2
 144   14:40   76.8    13   13.0   157     21.0   922.1    0.00     767    75.5
 144   14:50   77.3    12   13.3   156     20.2   921.9    0.00     743    75.7
 144   15:00   76.9    12   12.2   163     18.6   921.8    0.00     593    75.9
 144   15:10   77.2    12   12.2   158     18.7   921.7    0.00     135    76.1
 144   15:20   77.3    12   12.1   165     18.9   921.5    0.00      94    76.3
 144   15:30   77.3    12   12.6   165     19.8   921.3    0.00      61    76.5
 144   15:40   77.6    12   13.4   167     21.1   921.2    0.00      58    76.6
 144   15:50   77.6    11   12.1   149     22.0   921.1    0.00      57    76.7
 144   16:00   77.7    11   11.6   159     18.8   921.0    0.00      56    76.8
 144   16:10   77.7    11   12.0   170     18.8   920.9    0.00      55    76.9
 144   16:20   77.9    11   10.9   156     19.4   920.7    0.00      51    76.9
 144   16:30   77.5    11   11.2   157     17.3   920.6    0.00      61    77.0
 144   16:40   77.6    12   12.2   161     17.7   920.4    0.00      72    77.0
 144   16:50   77.7    12   11.9   155     20.4   920.3    0.00      49    77.1
 144   17:00   77.6    13   11.5   158     16.1   920.2    0.00      45    77.1
 144   17:10   77.5    13   13.9   160     21.4   920.1    0.00      43    77.1
 144   17:20   77.3    13   13.7   167     19.0   920.0    0.00      43    77.1
 144   17:30   77.0    13   13.0   161     20.2   920.0    0.00      39    77.1
 144   17:40   76.9    13   11.3   166     17.1   919.9    0.00      43    77.2
 144   17:50   77.0    12   11.8   172     19.1   919.7    0.00      53    77.2
 144   18:00   76.4    13   11.9   171     18.1   919.7    0.00      49    77.2
 144   18:10   75.9    13   12.3   165     17.2   919.6    0.00      29    77.2
 144   18:20   75.6    13   11.3   168     17.5   919.6    0.00      26    77.2
 144   18:30   75.2    13   10.4   165     16.1   919.6    0.00      18    77.2
 144   18:40   74.7    14   10.1   161     17.5   919.6    0.00      13    77.1
 144   18:50   74.2    15    9.6   160     14.2   919.6    0.00       7    77.1
 144   19:00   73.7    17   10.1   165     15.1   919.6    0.00       3    77.1
 144   19:10   73.2    19   11.7   162     16.4   919.6    0.00       0    77.1
 144   19:20   72.8    21   12.9   161     18.9   919.6    0.00       0    77.1
 144   19:30   72.4    21   13.7   166     20.7   919.6    0.00       0    77.1
 144   19:40   71.8    22   13.6   167     20.5   919.6    0.00       0    77.0
 144   19:50   71.3    23   13.6   170     19.9   919.6    0.00       0    77.0
 144   20:00   71.0    23   13.0   172     18.6   919.7    0.00       0    77.0
 144   20:10   70.5    22   12.2   174     17.2   919.7    0.00       0    76.9
 144   20:20   70.1    22   11.3   176     15.9   919.8    0.00       0    76.9
 144   20:30   69.3    23   10.1   169     14.7   920.0    0.00       0    76.8
 144   20:40   68.9    24    9.8   166     14.5   920.2    0.00       0    76.8
 144   20:50   68.5    24    9.3   167     12.8   920.3    0.00       0    76.7
 144   21:00   68.2    24    9.6   166     13.5   920.4    0.00       0    76.7
 144   21:10   67.9    24    9.7   165     14.0   920.5    0.00       0    76.6
 144   21:20   67.6    24    9.7   166     14.2   920.5    0.00       0    76.5
 144   21:30   67.3    24    9.3   162     13.4   920.5    0.00       0    76.5
 144   21:40   66.7    24    8.7   161     12.6   920.5    0.00       0    76.4
 144   21:50   66.5    24    9.2   162     12.7   920.6    0.00       0    76.3

Return to Amargosa Valley, Nevada graphs page.


Western Regional Climate Center,wrcc@dri.edu